Time;durP1;ratioP1;P1;durP2;ratioP2;P2;SDS_P1;SDS_P2;PMS_P1;PMS_P2;Temp;Humidity;BMP_temperature;BMP_pressure;BME280_temperature;BME280_humidity;BME280_pressure;Samples;Min_cycle;Max_cycle;Signal;HPM_P1;HPM_P2
2022/11/03 00:00:26;;;;;;;18.38;6.05;;;;;;;;;;7386830;19;20364;-75
2022/11/03 00:02:52;;;;;;;18.33;5.53;;;;;;;;;;7387096;19;20009;-76
2022/11/03 00:08:02;;;;;;;12.23;5.68;;;;;;;;;;7391078;19;20006;-76
2022/11/03 00:10:31;;;;;;;18.33;5.20;;;;;;;;;;7386348;19;20003;-75
2022/11/03 00:12:56;;;;;;;13.88;5.63;;;;;;;;;;7384004;19;20091;-76
2022/11/03 00:15:22;;;;;;;19.17;5.53;;;;;;;;;;7385801;19;20002;-75
2022/11/03 00:17:47;;;;;;;14.65;5.38;;;;;;;;;;7385545;19;20066;-75
2022/11/03 00:20:12;;;;;;;15.77;5.45;;;;;;;;;;7385454;19;20006;-76
2022/11/03 00:22:37;;;;;;;13.20;5.40;;;;;;;;;;7384061;19;20020;-76
2022/11/03 00:25:03;;;;;;;14.90;5.25;;;;;;;;;;7385590;19;20006;-76
2022/11/03 00:27:28;;;;;;;19.02;5.40;;;;;;;;;;7383663;19;19995;-75
2022/11/03 00:29:54;;;;;;;17.30;5.50;;;;;;;;;;7384221;19;19998;-76
2022/11/03 00:32:19;;;;;;;17.10;5.30;;;;;;;;;;7389313;19;20003;-76
2022/11/03 00:34:44;;;;;;;18.67;5.50;;;;;;;;;;7395043;19;20009;-75
2022/11/03 00:37:10;;;;;;;14.77;5.63;;;;;;;;;;7393146;19;20030;-76
2022/11/03 00:39:35;;;;;;;15.65;5.65;;;;;;;;;;7393243;19;20016;-76
2022/11/03 00:42:00;;;;;;;16.30;5.90;;;;;;;;;;7391985;19;20006;-76
2022/11/03 00:44:26;;;;;;;16.67;5.53;;;;;;;;;;7393508;19;19998;-75
2022/11/03 00:46:51;;;;;;;11.88;5.70;;;;;;;;;;7392715;19;20019;-74
2022/11/03 00:49:17;;;;;;;14.48;5.63;;;;;;;;;;7394196;19;20373;-74
2022/11/03 00:51:42;;;;;;;14.38;5.82;;;;;;;;;;7390045;19;20463;-76
2022/11/03 00:54:07;;;;;;;11.48;5.53;;;;;;;;;;7392934;19;20003;-76
2022/11/03 00:56:35;;;;;;;13.70;5.63;;;;;;;;;;7390868;19;20047;-76
2022/11/03 00:59:03;;;;;;;15.88;6.15;;;;;;;;;;7392701;19;20014;-76
2022/11/03 01:01:39;;;;;;;14.00;5.32;;;;;;;;;;7396235;19;20003;-75
2022/11/03 01:06:53;;;;;;;14.45;5.82;;;;;;;;;;7391650;19;20023;-76
2022/11/03 01:09:39;;;;;;;10.80;5.13;;;;;;;;;;7392296;19;20497;-76
2022/11/03 01:12:15;;;;;;;15.77;5.53;;;;;;;;;;7388946;19;20002;-75
2022/11/03 01:14:43;;;;;;;17.58;6.00;;;;;;;;;;7392291;19;20111;-75
2022/11/03 01:17:12;;;;;;;17.30;6.25;;;;;;;;;;7391719;19;20832;-76
2022/11/03 01:19:37;;;;;;;18.33;6.25;;;;;;;;;;7391385;19;20045;-75
2022/11/03 01:22:03;;;;;;;22.40;6.60;;;;;;;;;;7390242;19;20002;-75
2022/11/03 01:24:28;;;;;;;20.92;6.35;;;;;;;;;;7391318;19;19995;-76
2022/11/03 01:26:54;;;;;;;14.45;6.00;;;;;;;;;;7389634;19;20005;-76
2022/11/03 01:29:19;;;;;;;16.63;5.72;;;;;;;;;;7389413;19;19999;-76
2022/11/03 01:31:44;;;;;;;16.38;5.72;;;;;;;;;;7390669;19;19999;-75
2022/11/03 01:34:18;;;;;;;16.27;5.25;;;;;;;;;;7390771;19;20408;-75
2022/11/03 01:36:44;;;;;;;15.48;5.80;;;;;;;;;;7388985;19;20016;-75
2022/11/03 01:39:14;;;;;;;14.80;6.28;;;;;;;;;;7390457;19;20009;-75
2022/11/03 01:41:41;;;;;;;15.87;6.13;;;;;;;;;;7390441;19;20010;-75
2022/11/03 01:44:07;;;;;;;18.13;6.78;;;;;;;;;;7390251;19;20006;-76
2022/11/03 01:46:55;;;;;;;13.73;5.85;;;;;;;;;;7390714;19;20005;-74
2022/11/03 01:49:29;;;;;;;17.25;5.90;;;;;;;;;;7389613;19;20473;-75
2022/11/03 01:52:23;;;;;;;15.57;6.38;;;;;;;;;;7387285;19;20070;-74
2022/11/03 01:54:56;;;;;;;19.38;6.22;;;;;;;;;;7390144;19;19998;-75
2022/11/03 01:57:25;;;;;;;18.75;5.45;;;;;;;;;;7392538;19;20025;-75
2022/11/03 01:59:54;;;;;;;21.25;6.45;;;;;;;;;;7389747;19;19998;-75
2022/11/03 02:02:19;;;;;;;16.48;5.65;;;;;;;;;;7386367;19;20676;-76
2022/11/03 02:04:45;;;;;;;15.88;6.30;;;;;;;;;;7389450;19;20066;-75
2022/11/03 02:07:18;;;;;;;16.98;5.68;;;;;;;;;;7388574;19;20003;-76
2022/11/03 02:09:43;;;;;;;17.30;5.60;;;;;;;;;;7388304;19;19998;-76
2022/11/03 02:12:09;;;;;;;17.70;5.63;;;;;;;;;;7388214;19;20476;-75
2022/11/03 02:14:50;;;;;;;18.38;5.90;;;;;;;;;;7389505;19;20468;-75
2022/11/03 02:17:18;;;;;;;19.00;6.43;;;;;;;;;;7390029;19;20574;-75
2022/11/03 02:19:48;;;;;;;14.70;5.60;;;;;;;;;;7389405;19;20031;-77
2022/11/03 02:22:31;;;;;;;11.48;5.20;;;;;;;;;;7388095;19;20006;-77
2022/11/03 02:25:26;;;;;;;14.40;5.35;;;;;;;;;;7389021;19;20532;-76
2022/11/03 02:27:51;;;;;;;13.15;5.07;;;;;;;;;;7386466;19;19998;-76
2022/11/03 02:30:16;;;;;;;18.23;5.65;;;;;;;;;;7389321;19;20005;-75
2022/11/03 02:32:48;;;;;;;20.50;5.78;;;;;;;;;;7385424;19;20062;-75
2022/11/03 02:35:47;;;;;;;15.70;5.72;;;;;;;;;;7388403;19;20002;-75
2022/11/03 02:38:15;;;;;;;16.33;5.90;;;;;;;;;;7389098;19;20468;-76
2022/11/03 02:40:46;;;;;;;16.33;6.10;;;;;;;;;;7387761;19;20006;-76
2022/11/03 02:43:16;;;;;;;12.65;5.43;;;;;;;;;;7387391;19;20006;-76
2022/11/03 02:45:45;;;;;;;13.63;6.13;;;;;;;;;;7393127;19;20007;-77
2022/11/03 02:48:13;;;;;;;16.52;6.05;;;;;;;;;;7388809;19;20010;-76
2022/11/03 02:50:38;;;;;;;14.18;5.72;;;;;;;;;;7388403;19;20003;-76
2022/11/03 02:53:04;;;;;;;14.77;6.00;;;;;;;;;;7386506;19;20010;-76
2022/11/03 02:55:47;;;;;;;20.25;5.95;;;;;;;;;;7388069;19;20013;-76
2022/11/03 02:58:23;;;;;;;16.27;6.20;;;;;;;;;;7388410;19;20032;-76
2022/11/03 03:00:58;;;;;;;10.80;5.07;;;;;;;;;;7388715;19;20006;-76
2022/11/03 03:03:39;;;;;;;11.23;5.15;;;;;;;;;;7386705;19;20070;-76
2022/11/03 03:06:36;;;;;;;21.55;6.10;;;;;;;;;;7389008;19;20008;-76
2022/11/03 03:09:06;;;;;;;14.82;5.60;;;;;;;;;;7388682;19;20009;-76
2022/11/03 03:11:36;;;;;;;23.08;5.38;;;;;;;;;;7388266;19;20356;-76
2022/11/03 03:14:14;;;;;;;14.43;5.43;;;;;;;;;;7387950;19;20394;-75
2022/11/03 03:17:02;;;;;;;13.98;5.07;;;;;;;;;;7386577;19;20002;-75
2022/11/03 03:20:06;;;;;;;19.08;5.05;;;;;;;;;;7387903;19;20002;-75
2022/11/03 03:22:37;;;;;;;21.90;5.95;;;;;;;;;;7386124;19;20006;-75
2022/11/03 03:25:09;;;;;;;17.52;5.57;;;;;;;;;;7387610;19;20011;-76
2022/11/03 03:27:42;;;;;;;14.73;5.10;;;;;;;;;;7387603;19;20016;-74
2022/11/03 03:30:08;;;;;;;17.45;5.63;;;;;;;;;;7385942;19;20002;-76
2022/11/03 03:32:38;;;;;;;19.52;5.55;;;;;;;;;;7386381;19;20131;-76
2022/11/03 03:35:06;;;;;;;17.05;5.97;;;;;;;;;;7386043;19;20006;-76
2022/11/03 03:37:35;;;;;;;18.48;6.40;;;;;;;;;;7387212;19;20006;-76
2022/11/03 03:40:04;;;;;;;17.13;5.00;;;;;;;;;;7385222;19;20027;-76
2022/11/03 03:42:31;;;;;;;23.15;5.32;;;;;;;;;;7386514;19;20014;-77
2022/11/03 03:44:58;;;;;;;16.27;4.65;;;;;;;;;;7386919;19;20472;-75
2022/11/03 03:47:32;;;;;;;15.55;5.55;;;;;;;;;;7387615;19;19994;-76
2022/11/03 03:49:58;;;;;;;21.15;5.55;;;;;;;;;;7385058;19;20032;-76
2022/11/03 03:52:24;;;;;;;11.30;5.18;;;;;;;;;;7390825;19;20002;-76
2022/11/03 03:54:50;;;;;;;19.35;5.57;;;;;;;;;;7393430;19;19999;-77
2022/11/03 03:57:18;;;;;;;18.40;6.20;;;;;;;;;;7394963;19;19999;-74
2022/11/03 03:59:44;;;;;;;16.25;5.85;;;;;;;;;;7392753;19;20060;-76
2022/11/03 04:02:11;;;;;;;11.32;5.00;;;;;;;;;;7388206;19;20709;-77
2022/11/03 04:04:36;;;;;;;16.60;4.97;;;;;;;;;;7388531;19;19999;-75
2022/11/03 04:09:46;;;;;;;16.30;5.90;;;;;;;;;;7401172;19;20046;-75
2022/11/03 04:23:13;;;;;;;16.67;5.25;;;;;;;;;;7398356;19;20029;-76
2022/11/03 04:25:39;;;;;;;14.98;5.15;;;;;;;;;;7400293;19;20054;-75
2022/11/03 04:28:14;;;;;;;17.50;5.68;;;;;;;;;;7400550;19;19999;-76
2022/11/03 04:30:39;;;;;;;14.65;5.18;;;;;;;;;;7399907;19;20017;-75
2022/11/03 04:33:16;;;;;;;14.20;5.00;;;;;;;;;;7398127;19;19998;-77
2022/11/03 04:35:43;;;;;;;13.57;5.13;;;;;;;;;;7399348;19;20357;-77
2022/11/03 04:38:11;;;;;;;15.65;5.60;;;;;;;;;;7401513;19;19999;-76
2022/11/03 04:40:41;;;;;;;15.43;5.63;;;;;;;;;;7399714;19;20491;-76
2022/11/03 04:43:12;;;;;;;14.52;5.38;;;;;;;;;;7398067;19;20482;-77
2022/11/03 04:45:38;;;;;;;13.13;5.43;;;;;;;;;;7399656;19;20062;-75
2022/11/03 04:48:15;;;;;;;12.10;4.72;;;;;;;;;;7400744;19;19999;-76
2022/11/03 04:50:41;;;;;;;11.43;4.90;;;;;;;;;;7398317;19;20003;-76
2022/11/03 04:53:13;;;;;;;20.17;5.22;;;;;;;;;;7397680;19;19999;-75
2022/11/03 04:55:42;;;;;;;12.75;5.22;;;;;;;;;;7397388;19;20010;-75
2022/11/03 04:58:20;;;;;;;17.17;4.97;;;;;;;;;;7399355;19;20014;-75
2022/11/03 05:00:49;;;;;;;12.85;5.63;;;;;;;;;;7399322;19;20013;-75
2022/11/03 05:03:24;;;;;;;14.77;5.47;;;;;;;;;;7397373;19;20006;-75
2022/11/03 05:05:49;;;;;;;11.80;5.40;;;;;;;;;;7399837;19;20698;-75
2022/11/03 05:08:17;;;;;;;11.90;5.22;;;;;;;;;;7399609;19;20006;-75
2022/11/03 05:10:43;;;;;;;17.27;5.55;;;;;;;;;;7399783;19;19998;-76
2022/11/03 05:13:34;;;;;;;20.60;5.53;;;;;;;;;;7397349;19;20003;-76
2022/11/03 05:16:03;;;;;;;12.43;5.25;;;;;;;;;;7397107;19;20002;-76
2022/11/03 05:18:32;;;;;;;15.15;5.43;;;;;;;;;;7390997;19;20002;-76
2022/11/03 05:21:00;;;;;;;13.73;4.88;;;;;;;;;;7390457;19;20003;-76
2022/11/03 05:23:28;;;;;;;13.88;4.95;;;;;;;;;;7389430;19;20007;-76
2022/11/03 05:25:56;;;;;;;15.57;5.35;;;;;;;;;;7391646;19;20046;-76
2022/11/03 05:28:26;;;;;;;13.25;5.45;;;;;;;;;;7389557;19;20492;-76
2022/11/03 05:30:52;;;;;;;14.48;5.03;;;;;;;;;;7391360;19;20054;-75
2022/11/03 05:33:21;;;;;;;11.48;5.43;;;;;;;;;;7388806;19;20108;-77
2022/11/03 05:35:46;;;;;;;20.55;5.78;;;;;;;;;;7390392;19;20007;-76
2022/11/03 05:38:14;;;;;;;10.82;4.63;;;;;;;;;;7391072;19;20009;-77
2022/11/03 05:40:40;;;;;;;12.35;5.10;;;;;;;;;;7395056;19;20006;-76
2022/11/03 05:43:07;;;;;;;14.00;5.35;;;;;;;;;;7389020;19;20464;-77
2022/11/03 05:45:36;;;;;;;15.07;5.05;;;;;;;;;;7392588;19;20361;-77
2022/11/03 05:48:04;;;;;;;14.05;5.93;;;;;;;;;;7389715;19;19994;-76
2022/11/03 05:50:33;;;;;;;14.95;5.07;;;;;;;;;;7390835;19;19999;-75
2022/11/03 05:53:15;;;;;;;12.38;5.03;;;;;;;;;;7388457;19;20002;-77
2022/11/03 05:55:41;;;;;;;16.95;5.40;;;;;;;;;;7389893;19;20078;-76
2022/11/03 05:58:39;;;;;;;16.23;5.38;;;;;;;;;;7388494;19;19998;-76
2022/11/03 06:01:27;;;;;;;13.73;5.40;;;;;;;;;;7390912;19;20472;-77
2022/11/03 06:03:52;;;;;;;11.30;5.10;;;;;;;;;;7392285;19;20471;-76
2022/11/03 06:06:32;;;;;;;12.15;5.40;;;;;;;;;;7386809;19;20006;-76
2022/11/03 06:09:01;;;;;;;12.93;4.55;;;;;;;;;;7392307;19;20006;-76
2022/11/03 06:11:35;;;;;;;16.50;5.47;;;;;;;;;;7390699;19;20009;-75
2022/11/03 06:14:11;;;;;;;14.55;5.10;;;;;;;;;;7393921;19;20070;-77
2022/11/03 06:16:43;;;;;;;14.23;5.13;;;;;;;;;;7388526;19;20688;-76
2022/11/03 06:19:19;;;;;;;14.02;5.45;;;;;;;;;;7392982;19;20021;-76
2022/11/03 06:21:46;;;;;;;16.65;6.00;;;;;;;;;;7392830;19;20022;-76
2022/11/03 06:24:14;;;;;;;13.63;5.78;;;;;;;;;;7393204;19;20002;-76
2022/11/03 06:26:40;;;;;;;14.65;5.38;;;;;;;;;;7393646;19;20086;-71
2022/11/03 06:29:13;;;;;;;18.80;6.35;;;;;;;;;;7383730;19;20548;-71
2022/11/03 06:31:38;;;;;;;15.77;6.15;;;;;;;;;;7390679;19;20685;-70
2022/11/03 06:34:37;;;;;;;15.38;6.15;;;;;;;;;;7392937;19;20028;-72
2022/11/03 06:37:33;;;;;;;15.68;6.13;;;;;;;;;;7390449;19;20011;-72
2022/11/03 06:40:23;;;;;;;18.67;5.45;;;;;;;;;;7391642;19;20001;-77
2022/11/03 06:42:48;;;;;;;14.07;6.03;;;;;;;;;;7390585;19;20065;-76
2022/11/03 06:45:19;;;;;;;16.55;5.40;;;;;;;;;;7392304;19;20401;-76
2022/11/03 06:47:45;;;;;;;15.50;5.95;;;;;;;;;;7392802;19;20023;-75
2022/11/03 06:50:32;;;;;;;12.88;5.18;;;;;;;;;;7391749;19;20378;-76
2022/11/03 06:53:02;;;;;;;11.60;5.30;;;;;;;;;;7389525;19;20386;-76
2022/11/03 06:55:30;;;;;;;18.77;5.35;;;;;;;;;;7391371;19;20014;-76
2022/11/03 06:58:01;;;;;;;17.45;6.05;;;;;;;;;;7394240;19;20062;-76
2022/11/03 07:00:28;;;;;;;15.88;6.05;;;;;;;;;;7390612;19;20005;-76
2022/11/03 07:03:09;;;;;;;14.13;5.40;;;;;;;;;;7389426;19;20666;-75
2022/11/03 07:05:35;;;;;;;23.85;6.00;;;;;;;;;;7392723;19;20181;-73
2022/11/03 07:08:15;;;;;;;17.45;5.65;;;;;;;;;;7389862;19;19995;-75
2022/11/03 07:10:40;;;;;;;16.42;5.65;;;;;;;;;;7390760;19;20078;-75
2022/11/03 07:13:14;;;;;;;14.98;5.15;;;;;;;;;;7366984;19;20004;-76
2022/11/03 07:15:42;;;;;;;11.15;5.07;;;;;;;;;;7390555;19;20002;-78
2022/11/03 07:18:24;;;;;;;17.55;5.53;;;;;;;;;;7390443;19;19994;-75
2022/11/03 07:20:51;;;;;;;14.95;4.88;;;;;;;;;;7392315;19;19999;-75
2022/11/03 07:23:23;;;;;;;14.98;5.38;;;;;;;;;;7388469;19;20018;-75
2022/11/03 07:26:00;;;;;;;15.55;4.93;;;;;;;;;;7392258;19;20408;-76
2022/11/03 07:28:33;;;;;;;14.43;5.28;;;;;;;;;;7389028;19;20087;-75
2022/11/03 07:31:01;;;;;;;9.60;4.63;;;;;;;;;;7389400;19;20326;-72
2022/11/03 07:33:29;;;;;;;14.70;4.53;;;;;;;;;;7384828;19;20054;-73
2022/11/03 07:35:56;;;;;;;11.55;4.80;;;;;;;;;;7384000;19;20006;-73
2022/11/03 07:38:23;;;;;;;16.40;4.82;;;;;;;;;;7384362;19;19994;-73
2022/11/03 07:40:50;;;;;;;12.43;4.70;;;;;;;;;;7385393;19;20024;-73
2022/11/03 07:43:23;;;;;;;11.00;4.10;;;;;;;;;;7377088;19;20014;-73
2022/11/03 07:45:51;;;;;;;11.45;5.00;;;;;;;;;;7386118;19;20007;-73
2022/11/03 07:48:23;;;;;;;15.25;6.28;;;;;;;;;;7387038;19;20002;-73
2022/11/03 07:50:51;;;;;;;21.00;6.93;;;;;;;;;;7388738;19;20066;-73
2022/11/03 07:53:28;;;;;;;11.82;5.72;;;;;;;;;;7387905;19;20461;-73
2022/11/03 07:55:55;;;;;;;15.88;5.90;;;;;;;;;;7386846;19;19995;-72
2022/11/03 07:58:49;;;;;;;19.58;5.78;;;;;;;;;;7388006;19;20062;-73
2022/11/03 08:01:26;;;;;;;14.80;4.95;;;;;;;;;;7387246;19;19995;-74
2022/11/03 08:03:56;;;;;;;12.30;4.60;;;;;;;;;;7387751;19;20019;-74
2022/11/03 08:06:21;;;;;;;13.57;4.97;;;;;;;;;;7388989;19;20034;-73
2022/11/03 08:08:46;;;;;;;11.00;4.68;;;;;;;;;;7390088;19;19994;-73
2022/11/03 08:11:12;;;;;;;15.38;5.30;;;;;;;;;;7388407;19;20010;-72
2022/11/03 08:13:37;;;;;;;14.50;4.90;;;;;;;;;;7386963;19;19998;-71
2022/11/03 08:16:03;;;;;;;16.25;5.22;;;;;;;;;;7385300;19;19998;-73
2022/11/03 08:18:28;;;;;;;15.23;5.15;;;;;;;;;;7390209;19;19995;-72
2022/11/03 08:20:53;;;;;;;11.30;4.80;;;;;;;;;;7389743;19;20102;-72
2022/11/03 08:23:18;;;;;;;13.75;5.57;;;;;;;;;;7385628;19;20030;-74
2022/11/03 08:25:44;;;;;;;14.77;5.00;;;;;;;;;;7390808;19;19994;-73
2022/11/03 08:28:09;;;;;;;16.98;5.45;;;;;;;;;;7388463;19;20356;-72
2022/11/03 08:30:35;;;;;;;16.85;4.32;;;;;;;;;;7388156;19;20006;-73
2022/11/03 08:33:00;;;;;;;10.98;4.80;;;;;;;;;;7386366;19;19997;-73
2022/11/03 08:35:29;;;;;;;15.52;5.47;;;;;;;;;;7382417;19;20015;-72
2022/11/03 08:37:54;;;;;;;12.52;5.05;;;;;;;;;;7388812;19;20065;-73
2022/11/03 08:40:20;;;;;;;15.30;4.82;;;;;;;;;;7388041;19;20003;-73
2022/11/03 08:42:45;;;;;;;12.65;5.07;;;;;;;;;;7386360;19;20011;-73
2022/11/03 08:45:10;;;;;;;14.07;5.28;;;;;;;;;;7390017;19;20010;-73
2022/11/03 08:47:36;;;;;;;11.57;4.45;;;;;;;;;;7389534;19;20032;-73
2022/11/03 08:50:03;;;;;;;10.25;4.90;;;;;;;;;;7389040;19;20018;-74
2022/11/03 08:52:28;;;;;;;15.65;5.45;;;;;;;;;;7388750;19;19995;-72
2022/11/03 08:54:53;;;;;;;16.13;5.00;;;;;;;;;;7397116;19;20052;-74
2022/11/03 08:57:19;;;;;;;15.43;4.35;;;;;;;;;;7394859;19;20003;-72
2022/11/03 08:59:44;;;;;;;13.20;5.07;;;;;;;;;;7398540;19;20006;-72
2022/11/03 09:02:09;;;;;;;15.05;5.25;;;;;;;;;;7393400;19;20437;-71
2022/11/03 09:04:35;;;;;;;11.30;4.65;;;;;;;;;;7394735;19;19999;-73
2022/11/03 09:07:00;;;;;;;12.80;4.90;;;;;;;;;;7397213;19;19994;-73
2022/11/03 09:09:25;;;;;;;12.75;4.97;;;;;;;;;;7396462;19;19998;-72
2022/11/03 09:11:51;;;;;;;12.48;5.20;;;;;;;;;;7392520;19;19995;-72
2022/11/03 09:14:16;;;;;;;17.20;5.97;;;;;;;;;;7394132;19;20012;-72
2022/11/03 09:16:41;;;;;;;10.23;4.85;;;;;;;;;;7393993;19;20559;-74
2022/11/03 09:19:07;;;;;;;12.90;4.70;;;;;;;;;;7396223;19;20002;-71
2022/11/03 09:21:32;;;;;;;14.35;5.72;;;;;;;;;;7394226;19;19999;-73
2022/11/03 09:23:58;;;;;;;17.42;5.15;;;;;;;;;;7391334;19;20009;-73
2022/11/03 09:26:25;;;;;;;14.60;6.20;;;;;;;;;;7395740;19;20002;-73
2022/11/03 09:28:50;;;;;;;17.38;5.70;;;;;;;;;;7395117;19;20006;-73
2022/11/03 09:31:16;;;;;;;12.32;4.80;;;;;;;;;;7392735;19;20003;-72
2022/11/03 09:33:41;;;;;;;16.30;5.88;;;;;;;;;;7397666;19;19998;-74
2022/11/03 09:36:07;;;;;;;15.52;5.57;;;;;;;;;;7391403;19;20003;-71
2022/11/03 09:38:32;;;;;;;13.02;5.20;;;;;;;;;;7394247;19;19999;-72
2022/11/03 09:40:58;;;;;;;11.40;5.75;;;;;;;;;;7394939;19;20024;-73
2022/11/03 09:43:23;;;;;;;18.10;5.78;;;;;;;;;;7371541;19;20014;-74
2022/11/03 09:45:49;;;;;;;14.55;5.32;;;;;;;;;;7392007;19;20006;-72
2022/11/03 09:48:14;;;;;;;11.95;4.78;;;;;;;;;;7392735;19;20006;-72
2022/11/03 09:50:40;;;;;;;16.35;5.13;;;;;;;;;;7392934;19;20500;-72
2022/11/03 09:53:10;;;;;;;21.50;5.90;;;;;;;;;;7392944;19;20460;-74
2022/11/03 09:55:35;;;;;;;15.90;5.55;;;;;;;;;;7394693;19;19995;-72
2022/11/03 09:58:11;;;;;;;13.73;5.43;;;;;;;;;;7396161;19;20398;-74
2022/11/03 10:00:36;;;;;;;12.90;5.60;;;;;;;;;;7392534;19;20058;-73
2022/11/03 10:03:03;;;;;;;15.57;6.05;;;;;;;;;;7389831;19;20019;-73
2022/11/03 10:05:29;;;;;;;10.35;4.57;;;;;;;;;;7396130;19;20003;-72
2022/11/03 10:08:01;;;;;;;12.02;4.65;;;;;;;;;;7396397;19;20025;-72
2022/11/03 10:10:27;;;;;;;12.27;5.10;;;;;;;;;;7396957;19;19994;-72
2022/11/03 10:12:52;;;;;;;11.13;5.05;;;;;;;;;;7392214;19;20462;-73
2022/11/03 10:15:20;;;;;;;14.52;5.65;;;;;;;;;;7395104;19;20013;-73
2022/11/03 10:17:46;;;;;;;9.75;4.57;;;;;;;;;;7395245;19;20066;-74
2022/11/03 10:20:14;;;;;;;14.10;4.55;;;;;;;;;;7395763;19;19991;-73
2022/11/03 10:22:42;;;;;;;12.50;4.47;;;;;;;;;;7391401;19;19998;-74
2022/11/03 10:25:26;;;;;;;9.93;4.65;;;;;;;;;;7393778;19;20022;-73
2022/11/03 10:27:51;;;;;;;12.25;5.15;;;;;;;;;;7394959;19;19998;-72
2022/11/03 10:30:16;;;;;;;13.38;5.07;;;;;;;;;;7391322;19;20011;-71
2022/11/03 10:32:42;;;;;;;13.73;4.70;;;;;;;;;;7390644;19;20058;-71
2022/11/03 10:35:31;;;;;;;17.52;5.35;;;;;;;;;;7392703;19;20078;-73
2022/11/03 10:38:26;;;;;;;12.23;5.07;;;;;;;;;;7394561;19;19998;-72
2022/11/03 10:40:52;;;;;;;13.25;4.75;;;;;;;;;;7392674;19;19995;-72
2022/11/03 10:43:18;;;;;;;11.23;5.45;;;;;;;;;;7390529;19;20345;-73
2022/11/03 10:45:43;;;;;;;10.57;5.25;;;;;;;;;;7394076;19;19998;-73
2022/11/03 10:48:10;;;;;;;18.98;5.30;;;;;;;;;;7394724;19;20362;-73
2022/11/03 10:50:41;;;;;;;11.60;5.45;;;;;;;;;;7392300;19;19991;-73
2022/11/03 10:53:19;;;;;;;;;;;;;;;;;;7389561;19;20003;-73
2022/11/03 10:55:45;;;;;;;11.55;6.05;;;;;;;;;;7392732;19;19919;-73
2022/11/03 10:58:10;;;;;;;13.05;5.45;;;;;;;;;;7391731;19;20002;-73
2022/11/03 11:00:35;;;;;;;14.10;6.03;;;;;;;;;;7391413;19;20014;-72
2022/11/03 11:03:01;;;;;;;13.07;5.72;;;;;;;;;;7390493;19;20077;-72
2022/11/03 11:05:27;;;;;;;13.77;6.10;;;;;;;;;;7392566;19;20016;-73
2022/11/03 11:07:53;;;;;;;18.00;6.05;;;;;;;;;;7393939;19;20019;-73
2022/11/03 11:10:30;;;;;;;12.18;5.60;;;;;;;;;;7390632;19;19998;-74
2022/11/03 11:13:15;;;;;;;13.98;5.60;;;;;;;;;;7390680;19;20455;-73
2022/11/03 11:15:44;;;;;;;13.05;5.82;;;;;;;;;;7392255;19;20070;-72
2022/11/03 11:18:18;;;;;;;16.15;6.18;;;;;;;;;;7393942;19;20019;-73
2022/11/03 11:20:43;;;;;;;12.90;5.75;;;;;;;;;;7389985;19;20006;-73
2022/11/03 11:23:27;;;;;;;14.45;6.05;;;;;;;;;;7389893;19;19998;-73
2022/11/03 11:26:08;;;;;;;14.65;5.63;;;;;;;;;;7393129;19;20460;-72
2022/11/03 11:28:34;;;;;;;17.73;5.70;;;;;;;;;;7388688;19;20395;-72
2022/11/03 11:31:00;;;;;;;15.90;5.57;;;;;;;;;;7391369;19;20390;-73
2022/11/03 11:33:28;;;;;;;17.90;5.80;;;;;;;;;;7388805;19;20002;-72
2022/11/03 11:35:53;;;;;;;13.10;5.57;;;;;;;;;;7392726;19;19995;-72
2022/11/03 11:38:56;;;;;;;14.30;5.32;;;;;;;;;;7392691;19;20015;-73
2022/11/03 11:42:00;;;;;;;14.73;5.97;;;;;;;;;;7392163;19;19998;-73
2022/11/03 11:44:51;;;;;;;12.27;5.20;;;;;;;;;;7389773;19;20398;-73
2022/11/03 11:47:38;;;;;;;13.48;5.35;;;;;;;;;;7391447;19;20035;-72
2022/11/03 11:50:10;;;;;;;11.52;5.20;;;;;;;;;;7390496;19;20013;-73
2022/11/03 11:52:49;;;;;;;11.60;5.22;;;;;;;;;;7389408;19;20126;-73
2022/11/03 11:55:23;;;;;;;15.38;5.43;;;;;;;;;;7390955;19;20435;-73
2022/11/03 11:57:49;;;;;;;12.15;5.72;;;;;;;;;;7391163;19;20006;-73
2022/11/03 12:00:24;;;;;;;15.02;5.22;;;;;;;;;;7391237;19;20364;-73
2022/11/03 12:02:51;;;;;;;15.48;5.28;;;;;;;;;;7387634;19;20325;-73
2022/11/03 12:05:22;;;;;;;10.15;5.05;;;;;;;;;;7389015;19;20081;-73
2022/11/03 12:07:48;;;;;;;14.95;5.53;;;;;;;;;;7391310;19;19995;-71
2022/11/03 12:10:22;;;;;;;10.38;4.88;;;;;;;;;;7391619;19;20001;-73
2022/11/03 12:12:48;;;;;;;14.18;5.70;;;;;;;;;;7387676;19;20022;-73
2022/11/03 12:15:50;;;;;;;13.77;5.68;;;;;;;;;;7388324;19;20010;-72
2022/11/03 12:18:30;;;;;;;11.00;5.13;;;;;;;;;;7389261;19;20628;-74
2022/11/03 12:20:55;;;;;;;13.13;5.85;;;;;;;;;;7390520;19;20484;-73
2022/11/03 12:23:39;;;;;;;13.10;5.35;;;;;;;;;;7386583;19;19995;-72
2022/11/03 12:26:12;;;;;;;15.63;5.45;;;;;;;;;;7391944;19;20002;-73
2022/11/03 12:28:37;;;;;;;16.55;5.40;;;;;;;;;;7396606;19;20023;-73
2022/11/03 12:31:03;;;;;;;12.50;5.35;;;;;;;;;;7397771;19;19998;-72
2022/11/03 12:33:29;;;;;;;15.45;5.32;;;;;;;;;;7394551;19;20511;-73
2022/11/03 12:35:55;;;;;;;19.58;5.70;;;;;;;;;;7398374;19;19998;-73
2022/11/03 12:38:21;;;;;;;10.45;5.28;;;;;;;;;;7396765;19;19990;-73
2022/11/03 12:40:46;;;;;;;13.82;5.20;;;;;;;;;;7396005;19;20472;-72
2022/11/03 12:43:12;;;;;;;13.43;5.35;;;;;;;;;;7393348;19;20037;-73
2022/11/03 12:45:37;;;;;;;11.70;4.60;;;;;;;;;;7395972;19;20003;-74
2022/11/03 12:48:04;;;;;;;14.90;5.22;;;;;;;;;;7397076;19;20058;-72
2022/11/03 12:50:29;;;;;;;13.48;5.43;;;;;;;;;;7395519;19;20027;-72
2022/11/03 12:52:55;;;;;;;13.90;5.57;;;;;;;;;;7391254;19;19995;-72
2022/11/03 12:55:20;;;;;;;14.10;5.15;;;;;;;;;;7396072;19;20003;-73
2022/11/03 12:57:45;;;;;;;11.45;5.20;;;;;;;;;;7397925;19;20460;-72
2022/11/03 13:00:12;;;;;;;13.52;5.80;;;;;;;;;;7397280;19;20006;-73
2022/11/03 13:02:37;;;;;;;15.50;5.40;;;;;;;;;;7395975;19;20457;-73
2022/11/03 13:05:04;;;;;;;11.38;5.30;;;;;;;;;;7397054;19;20011;-72
2022/11/03 13:07:29;;;;;;;14.43;5.00;;;;;;;;;;7395205;19;20471;-72
2022/11/03 13:09:54;;;;;;;10.07;4.82;;;;;;;;;;7397982;19;19999;-73
2022/11/03 13:12:32;;;;;;;14.98;5.47;;;;;;;;;;7393842;19;20066;-73
2022/11/03 13:14:58;;;;;;;10.18;4.68;;;;;;;;;;7395920;19;20002;-72
2022/11/03 13:17:25;;;;;;;17.27;4.88;;;;;;;;;;7394338;19;20066;-73
2022/11/03 13:19:50;;;;;;;17.50;5.85;;;;;;;;;;7397634;19;19999;-73
2022/11/03 13:22:16;;;;;;;17.02;5.28;;;;;;;;;;7393017;19;20009;-73
2022/11/03 13:24:41;;;;;;;11.70;5.82;;;;;;;;;;7394744;19;20447;-73
2022/11/03 13:27:06;;;;;;;12.60;4.80;;;;;;;;;;7394557;19;20046;-73
2022/11/03 13:29:32;;;;;;;11.88;5.65;;;;;;;;;;7396780;19;19995;-73
2022/11/03 13:32:00;;;;;;;12.18;5.50;;;;;;;;;;7393341;19;19995;-73
2022/11/03 13:34:26;;;;;;;12.02;5.32;;;;;;;;;;7389484;19;19998;-73
2022/11/03 13:36:54;;;;;;;13.10;4.57;;;;;;;;;;7388574;19;20453;-73
2022/11/03 13:39:20;;;;;;;15.65;5.82;;;;;;;;;;7385770;19;20107;-73
2022/11/03 13:41:45;;;;;;;13.23;5.38;;;;;;;;;;7390213;19;20009;-73
2022/11/03 13:44:10;;;;;;;15.57;5.28;;;;;;;;;;7392528;19;19994;-71
2022/11/03 13:46:36;;;;;;;15.27;5.15;;;;;;;;;;7388916;19;19998;-73
2022/11/03 13:49:01;;;;;;;13.15;5.53;;;;;;;;;;7392557;19;20465;-73
2022/11/03 13:51:26;;;;;;;13.52;5.18;;;;;;;;;;7395282;19;20074;-73
2022/11/03 13:53:52;;;;;;;13.98;5.25;;;;;;;;;;7395511;19;20005;-72
2022/11/03 13:56:17;;;;;;;11.88;5.38;;;;;;;;;;7389471;19;19998;-74
2022/11/03 13:58:42;;;;;;;13.10;4.50;;;;;;;;;;7391264;19;20436;-73
2022/11/03 14:01:08;;;;;;;16.85;4.45;;;;;;;;;;7392442;19;19995;-72
2022/11/03 14:03:33;;;;;;;16.02;4.93;;;;;;;;;;7392021;19;19995;-72
2022/11/03 14:05:58;;;;;;;10.13;4.72;;;;;;;;;;7393793;19;20013;-73
2022/11/03 14:08:24;;;;;;;10.27;4.00;;;;;;;;;;7392152;19;20395;-72
2022/11/03 14:10:49;;;;;;;14.00;4.80;;;;;;;;;;7391702;19;20070;-72
2022/11/03 14:13:14;;;;;;;11.85;4.20;;;;;;;;;;7390884;19;20011;-73
2022/11/03 14:15:40;;;;;;;10.82;4.13;;;;;;;;;;7393798;19;20021;-72
2022/11/03 14:18:05;;;;;;;11.45;4.32;;;;;;;;;;7394995;19;20019;-72
2022/11/03 14:20:31;;;;;;;10.05;3.90;;;;;;;;;;7391973;19;20018;-72
2022/11/03 14:22:56;;;;;;;10.77;4.38;;;;;;;;;;7390601;19;20023;-73
2022/11/03 14:25:21;;;;;;;13.05;4.60;;;;;;;;;;7393342;19;20377;-73
2022/11/03 14:27:47;;;;;;;13.15;4.30;;;;;;;;;;7394387;19;20091;-72
2022/11/03 14:30:12;;;;;;;17.90;4.60;;;;;;;;;;7394819;19;20447;-73
2022/11/03 14:32:38;;;;;;;9.43;4.03;;;;;;;;;;7391912;19;19995;-73
2022/11/03 14:35:04;;;;;;;12.40;4.47;;;;;;;;;;7392543;19;20464;-73
2022/11/03 14:37:29;;;;;;;14.13;4.78;;;;;;;;;;7391471;19;19995;-73
2022/11/03 14:39:55;;;;;;;11.35;4.72;;;;;;;;;;7393439;19;19995;-72
2022/11/03 14:42:20;;;;;;;11.25;5.00;;;;;;;;;;7387376;19;20484;-71
2022/11/03 14:44:46;;;;;;;13.27;4.95;;;;;;;;;;7391811;19;19994;-73
2022/11/03 14:47:16;;;;;;;13.30;4.47;;;;;;;;;;7393405;19;20006;-73
2022/11/03 14:49:42;;;;;;;12.73;4.50;;;;;;;;;;7392932;19;20004;-73
2022/11/03 14:52:07;;;;;;;13.73;5.20;;;;;;;;;;7392835;19;19999;-73
2022/11/03 14:54:34;;;;;;;9.25;4.50;;;;;;;;;;7391239;19;20137;-72
2022/11/03 14:56:59;;;;;;;12.57;4.53;;;;;;;;;;7388387;19;20563;-72
2022/11/03 14:59:25;;;;;;;11.93;4.32;;;;;;;;;;7390651;19;20115;-72
2022/11/03 15:01:51;;;;;;;12.20;4.35;;;;;;;;;;7392884;19;20015;-73
2022/11/03 15:04:17;;;;;;;9.95;3.80;;;;;;;;;;7391059;19;20006;-73